Time;durP1;ratioP1;P1;durP2;ratioP2;P2;SDS_P1;SDS_P2;PMS_P1;PMS_P2;Temp;Humidity;BMP_temperature;BMP_pressure;BME280_temperature;BME280_humidity;BME280_pressure;Samples;Min_cycle;Max_cycle;Signal;HPM_P1;HPM_P2
2022/01/13 00:01:45;;;;;;;84.25;16.33;;;4.90;99.90;;;;;;5133756;27;20622;-76
2022/01/13 00:04:13;;;;;;;80.88;16.35;;;4.80;99.90;;;;;;5134714;27;20078;-76
2022/01/13 00:06:40;;;;;;;58.83;15.93;;;4.90;99.90;;;;;;5135245;27;20100;-76
2022/01/13 00:09:06;;;;;;;98.90;18.83;;;4.80;99.90;;;;;;5135437;27;20035;-76
2022/01/13 00:11:33;;;;;;;70.72;17.38;;;4.90;99.90;;;;;;5135822;27;20039;-76
2022/01/13 00:22:25;;;;;;;81.97;18.35;;;4.80;99.90;;;;;;5135178;27;20513;-76
2022/01/13 00:24:56;;;;;;;77.80;18.58;;;4.90;99.90;;;;;;5134837;27;20128;-76
2022/01/13 00:27:24;;;;;;;63.50;18.23;;;4.90;99.90;;;;;;5135850;27;20043;-76
2022/01/13 00:29:50;;;;;;;64.15;17.83;;;4.90;99.90;;;;;;5133743;27;20371;-76
2022/01/13 00:32:17;;;;;;;89.18;19.10;;;5.20;99.90;;;;;;5134245;27;20046;-76
2022/01/13 00:34:43;;;;;;;51.97;16.08;;;4.90;99.90;;;;;;5134520;27;20107;-77
2022/01/13 00:37:10;;;;;;;58.75;16.73;;;4.90;99.90;;;;;;5133491;27;20043;-76
2022/01/13 00:39:35;;;;;;;60.17;16.42;;;5.00;99.90;;;;;;5135776;27;20074;-77
2022/01/13 00:42:01;;;;;;;64.88;17.75;;;4.90;99.90;;;;;;5133917;27;20466;-77
2022/01/13 00:44:27;;;;;;;79.63;18.38;;;4.90;99.90;;;;;;5133644;27;20046;-77
2022/01/13 00:46:58;;;;;;;64.30;18.70;;;4.90;99.90;;;;;;5150220;27;20043;-76
2022/01/13 00:49:24;;;;;;;66.78;18.15;;;4.90;99.90;;;;;;5120537;27;20058;-76
2022/01/13 00:51:50;;;;;;;76.22;17.45;;;4.90;99.90;;;;;;5154962;27;20043;-76
2022/01/13 00:54:15;;;;;;;76.35;18.27;;;4.90;99.90;;;;;;5156414;27;20057;-76
2022/01/13 00:56:41;;;;;;;68.78;16.67;;;4.90;99.90;;;;;;5137363;27;20095;-76
2022/01/13 00:59:10;;;;;;;69.85;17.88;;;4.90;99.90;;;;;;5155670;27;20092;-76
2022/01/13 01:01:45;;;;;;;86.82;19.30;;;4.90;99.90;;;;;;5137046;27;20046;-76
2022/01/13 01:04:11;;;;;;;83.50;18.70;;;5.30;99.90;;;;;;5154908;27;20103;-77
2022/01/13 01:06:38;;;;;;;77.50;18.85;;;4.90;99.90;;;;;;5137423;27;20038;-76
2022/01/13 01:09:05;;;;;;;82.20;19.38;;;4.90;99.90;;;;;;5137100;27;20406;-77
2022/01/13 01:11:31;;;;;;;104.03;20.75;;;4.90;99.90;;;;;;5119330;27;20050;-76
2022/01/13 01:13:58;;;;;;;84.53;20.45;;;4.90;99.90;;;;;;5155661;27;20493;-76
2022/01/13 01:16:26;;;;;;;95.88;20.95;;;4.90;99.90;;;;;;5155522;27;20038;-76
2022/01/13 01:19:03;;;;;;;89.50;19.98;;;4.90;99.90;;;;;;5118658;27;20064;-76
2022/01/13 01:26:42;;;;;;;121.93;23.23;;;4.90;99.90;;;;;;5135146;27;20058;-76
2022/01/13 01:32:14;;;;;;;80.97;19.65;;;4.90;99.90;;;;;;5108253;27;20035;-76
2022/01/13 01:37:19;;;;;;;81.35;20.95;;;4.90;99.90;;;;;;5136832;27;20047;-76
2022/01/13 01:39:48;;;;;;;79.57;21.08;;;4.90;99.90;;;;;;5135780;27;20141;-76
2022/01/13 01:42:14;;;;;;;87.28;20.20;;;4.90;99.90;;;;;;5120023;27;20061;-76
2022/01/13 01:44:44;;;;;;;90.03;21.27;;;5.00;99.90;;;;;;5136982;27;20069;-76
2022/01/13 01:47:14;;;;;;;88.78;20.17;;;4.90;99.90;;;;;;5153891;27;20485;-76
2022/01/13 01:49:48;;;;;;;91.75;21.52;;;5.00;99.90;;;;;;5136727;27;20486;-76
2022/01/13 01:52:18;;;;;;;102.43;21.73;;;5.00;99.90;;;;;;5136884;27;20042;-76
2022/01/13 01:54:44;;;;;;;101.43;22.95;;;5.00;99.90;;;;;;5136053;27;20086;-76
2022/01/13 01:57:10;;;;;;;82.15;20.65;;;5.00;99.90;;;;;;5119543;27;20398;-76
2022/01/13 01:59:39;;;;;;;81.20;20.60;;;5.00;99.90;;;;;;5136478;27;20055;-76
2022/01/13 02:02:07;;;;;;;95.50;22.15;;;5.00;99.90;;;;;;5135399;27;20474;-76
2022/01/13 02:04:32;;;;;;;103.47;21.17;;;5.00;99.90;;;;;;5155124;27;20066;-76
2022/01/13 02:07:04;;;;;;;103.53;21.67;;;5.00;99.90;;;;;;5118924;27;20470;-76
2022/01/13 02:09:30;;;;;;;74.20;20.00;;;5.00;99.90;;;;;;5136558;27;20041;-76
2022/01/13 02:12:02;;;;;;;74.93;18.67;;;5.00;99.90;;;;;;5155126;27;20039;-76
2022/01/13 02:16:56;;;;;;;72.45;19.63;;;5.00;99.90;;;;;;5136166;27;20482;-76
2022/01/13 02:19:24;;;;;;;83.55;19.98;;;5.00;99.90;;;;;;5119169;27;20051;-76
2022/01/13 02:21:51;;;;;;;94.68;20.80;;;5.00;99.90;;;;;;5135513;27;20548;-76
2022/01/13 02:24:17;;;;;;;111.00;20.85;;;4.90;99.90;;;;;;5155007;27;20039;-76
2022/01/13 02:26:44;;;;;;;79.15;18.90;;;5.00;99.90;;;;;;5136148;27;20523;-76
2022/01/13 02:29:10;;;;;;;108.97;20.13;;;5.00;99.90;;;;;;5153479;27;20118;-76
2022/01/13 02:31:36;;;;;;;92.70;19.45;;;4.90;99.90;;;;;;5136187;27;20104;-76
2022/01/13 02:34:01;;;;;;;100.75;19.48;;;4.90;99.90;;;;;;5135833;27;20478;-76
2022/01/13 02:36:30;;;;;;;111.25;20.08;;;4.90;99.90;;;;;;5135430;27;20043;-76
2022/01/13 02:38:58;;;;;;;91.43;19.35;;;4.90;99.90;;;;;;5139227;27;20046;-76
2022/01/13 02:41:25;;;;;;;86.97;19.13;;;4.90;99.90;;;;;;5158935;27;20046;-76
2022/01/13 02:43:55;;;;;;;117.88;23.08;;;4.80;99.90;;;;;;5138874;27;20066;-77
2022/01/13 02:48:59;;;;;;;132.82;21.85;;;4.90;99.90;;;;;;5139498;27;20093;-77
2022/01/13 02:51:26;;;;;;;123.88;20.63;;;4.90;99.90;;;;;;5118579;27;20503;-77
2022/01/13 02:53:52;;;;;;;141.60;22.08;;;4.90;99.90;;;;;;5140479;27;20121;-76
2022/01/13 02:56:18;;;;;;;148.00;22.45;;;4.90;99.90;;;;;;5139315;27;20121;-76
2022/01/13 02:58:45;;;;;;;109.20;20.13;;;4.90;99.90;;;;;;5158358;27;20039;-76
2022/01/13 03:01:12;;;;;;;140.75;22.98;;;4.90;99.90;;;;;;5139350;27;20082;-76
2022/01/13 03:03:39;;;;;;;118.68;21.98;;;4.90;99.90;;;;;;5138533;27;20499;-76
2022/01/13 03:06:09;;;;;;;188.27;27.65;;;4.90;99.90;;;;;;5158160;27;20069;-76
2022/01/13 03:08:37;;;;;;;146.27;22.58;;;4.90;99.90;;;;;;5139399;27;20473;-76
2022/01/13 03:11:03;;;;;;;153.93;23.58;;;5.00;99.90;;;;;;5118070;27;20047;-76
2022/01/13 03:13:29;;;;;;;150.40;24.38;;;4.90;99.90;;;;;;5137410;27;20035;-77
2022/01/13 03:15:56;;;;;;;121.65;23.02;;;5.10;99.90;;;;;;5119089;27;20055;-76
2022/01/13 03:18:21;;;;;;;222.23;29.65;;;5.00;99.90;;;;;;5152387;27;20039;-76
2022/01/13 03:20:47;;;;;;;189.20;26.45;;;5.00;99.90;;;;;;5157865;27;20043;-77
2022/01/13 03:23:17;;;;;;;176.38;25.60;;;5.10;99.90;;;;;;5157810;27;20039;-76
2022/01/13 03:25:45;;;;;;;159.18;25.13;;;5.00;99.90;;;;;;5138369;27;20051;-76
2022/01/13 03:28:16;;;;;;;173.23;26.45;;;5.20;99.90;;;;;;5121653;27;20056;-77
2022/01/13 03:30:43;;;;;;;164.40;24.25;;;5.00;99.90;;;;;;5139188;27;20065;-76
2022/01/13 03:33:10;;;;;;;133.18;24.33;;;5.00;99.90;;;;;;5137981;27;20054;-76
2022/01/13 03:35:40;;;;;;;168.43;25.52;;;5.00;99.90;;;;;;5121548;27;20082;-76
2022/01/13 03:38:06;;;;;;;257.05;32.15;;;5.00;99.90;;;;;;5157613;27;20047;-77
2022/01/13 03:40:33;;;;;;;149.32;24.77;;;5.00;99.90;;;;;;5156762;27;20494;-76
2022/01/13 03:43:01;;;;;;;160.35;25.40;;;5.10;99.90;;;;;;5157592;27;20061;-76
2022/01/13 03:45:27;;;;;;;253.75;32.17;;;5.10;99.90;;;;;;5138696;27;20051;-77
2022/01/13 03:47:54;;;;;;;143.32;24.55;;;5.10;99.90;;;;;;5156496;27;20046;-77
2022/01/13 03:50:20;;;;;;;149.02;24.30;;;5.10;99.90;;;;;;5157079;27;20086;-77
2022/01/13 03:53:01;;;;;;;128.27;24.08;;;5.10;99.90;;;;;;5137901;27;20053;-76
2022/01/13 03:55:36;;;;;;;142.85;23.65;;;5.10;99.90;;;;;;5156837;27;20493;-77
2022/01/13 03:58:05;;;;;;;;;;;5.10;99.90;;;;;;5157699;27;20049;-77
2022/01/13 04:01:18;;;;;;;165.57;23.45;;;5.10;99.90;;;;;;5137715;27;19919;-77
2022/01/13 04:03:45;;;;;;;174.15;25.33;;;5.10;99.90;;;;;;5116901;27;20055;-77
2022/01/13 04:06:13;;;;;;;180.85;24.77;;;5.20;99.90;;;;;;5136209;27;20389;-77
2022/01/13 04:08:40;;;;;;;139.73;23.40;;;5.20;99.90;;;;;;5117005;27;20043;-77
2022/01/13 04:11:06;;;;;;;185.05;27.30;;;5.10;99.90;;;;;;5126725;27;20081;-76
2022/01/13 04:16:29;;;;;;;159.00;24.50;;;5.20;99.90;;;;;;5138241;27;20055;-77
2022/01/13 04:19:01;;;;;;;162.07;24.27;;;5.10;99.90;;;;;;5156490;27;20051;-77
2022/01/13 04:21:26;;;;;;;127.32;21.85;;;5.10;99.90;;;;;;5155950;27;20043;-77
2022/01/13 04:23:57;;;;;;;131.82;20.58;;;5.20;99.90;;;;;;5138240;27;20057;-77
2022/01/13 04:26:31;;;;;;;238.98;28.45;;;5.10;99.90;;;;;;5156778;27;20038;-76
2022/01/13 04:29:16;;;;;;;215.43;27.17;;;5.10;99.90;;;;;;5136994;27;20543;-77
2022/01/13 04:31:46;;;;;;;145.32;20.60;;;5.10;99.90;;;;;;5137835;27;20122;-76
2022/01/13 04:34:12;;;;;;;134.43;21.15;;;5.10;99.90;;;;;;5138244;27;20054;-77
2022/01/13 04:36:38;;;;;;;164.88;22.85;;;5.10;99.90;;;;;;5136707;27;20527;-77
2022/01/13 04:39:06;;;;;;;164.40;22.73;;;5.10;99.90;;;;;;5137225;27;20047;-76
2022/01/13 04:41:36;;;;;;;248.93;29.40;;;5.10;99.90;;;;;;5156176;27;20576;-77
2022/01/13 04:44:10;;;;;;;193.60;25.08;;;5.20;99.90;;;;;;5137238;27;20415;-77
2022/01/13 04:46:37;;;;;;;193.70;25.38;;;5.10;99.90;;;;;;5137217;27;20489;-77
2022/01/13 04:49:04;;;;;;;215.00;27.40;;;5.10;99.90;;;;;;5136742;27;20531;-77
2022/01/13 04:51:30;;;;;;;189.48;24.48;;;5.10;99.90;;;;;;5156081;27;20038;-77
2022/01/13 04:53:57;;;;;;;213.07;28.52;;;5.20;99.90;;;;;;5137512;27;20050;-77
2022/01/13 04:56:32;;;;;;;256.70;28.40;;;5.20;99.90;;;;;;5136616;27;20057;-77
2022/01/13 04:58:58;;;;;;;181.55;24.83;;;5.20;99.90;;;;;;5137073;27;20117;-76
2022/01/13 05:01:24;;;;;;;287.70;32.78;;;5.20;99.90;;;;;;5136776;27;20048;-77
2022/01/13 05:03:50;;;;;;;233.65;28.50;;;5.30;99.90;;;;;;5136322;27;20038;-77
2022/01/13 05:06:19;;;;;;;217.40;26.67;;;5.30;99.90;;;;;;5137207;27;20042;-77
2022/01/13 05:08:45;;;;;;;218.23;27.95;;;5.30;99.90;;;;;;5119909;27;20095;-77
2022/01/13 05:11:11;;;;;;;386.23;37.47;;;5.30;99.90;;;;;;5136273;27;20046;-77
2022/01/13 05:13:36;;;;;;;212.90;27.15;;;5.30;99.90;;;;;;5137215;27;20064;-77
2022/01/13 05:16:03;;;;;;;211.45;25.63;;;5.30;99.90;;;;;;5137207;27;20083;-77
2022/01/13 05:18:50;;;;;;;215.63;26.10;;;5.40;99.90;;;;;;5154183;27;20091;-77
2022/01/13 05:24:05;;;;;;;260.38;29.15;;;5.40;99.90;;;;;;5098127;27;20050;-77
2022/01/13 05:26:31;;;;;;;259.13;29.52;;;5.40;99.90;;;;;;5119924;27;20046;-77
2022/01/13 05:28:57;;;;;;;231.35;27.30;;;5.40;99.90;;;;;;5136415;27;20047;-77
2022/01/13 05:31:22;;;;;;;324.85;31.70;;;5.50;99.90;;;;;;5154647;27;20046;-77
2022/01/13 05:33:48;;;;;;;203.23;26.15;;;5.60;99.90;;;;;;5155278;27;20473;-77
2022/01/13 05:36:14;;;;;;;322.27;33.20;;;5.50;99.90;;;;;;5137078;27;20039;-76
2022/01/13 05:38:42;;;;;;;243.20;27.40;;;5.50;99.90;;;;;;5153914;27;20566;-77
2022/01/13 05:41:09;;;;;;;315.35;33.60;;;5.50;99.90;;;;;;5154945;27;20034;-77
2022/01/13 05:43:35;;;;;;;275.25;30.17;;;5.60;99.90;;;;;;5136940;27;20359;-77
2022/01/13 05:46:01;;;;;;;287.77;30.98;;;5.50;99.90;;;;;;5135693;27;20115;-77
2022/01/13 05:48:27;;;;;;;235.35;29.55;;;5.50;99.90;;;;;;5136321;27;20134;-77
2022/01/13 05:50:53;;;;;;;267.33;31.08;;;5.60;99.90;;;;;;5155348;27;20121;-77
2022/01/13 05:53:18;;;;;;;281.80;30.52;;;5.60;99.90;;;;;;5135595;27;20043;-77
2022/01/13 05:55:44;;;;;;;290.75;32.90;;;5.60;99.90;;;;;;5155157;27;20046;-77
2022/01/13 05:58:10;;;;;;;296.92;34.35;;;5.70;99.90;;;;;;5154879;27;20508;-77
2022/01/13 06:00:36;;;;;;;305.90;32.70;;;5.70;99.90;;;;;;5136089;27;20046;-77
2022/01/13 06:03:04;;;;;;;327.40;33.92;;;5.80;99.90;;;;;;5155009;27;20038;-77
2022/01/13 06:05:31;;;;;;;326.35;36.85;;;5.70;99.90;;;;;;5155203;27;20095;-77
2022/01/13 06:07:57;;;;;;;284.17;32.83;;;5.70;99.90;;;;;;5153952;27;20118;-77
2022/01/13 06:10:22;;;;;;;347.60;36.22;;;5.80;99.90;;;;;;5136214;27;20460;-77
2022/01/13 06:12:50;;;;;;;343.58;37.03;;;5.80;99.90;;;;;;5139393;27;20371;-77
2022/01/13 06:15:21;;;;;;;320.80;35.13;;;5.80;99.90;;;;;;5158372;27;20050;-77
2022/01/13 06:17:49;;;;;;;290.40;34.10;;;5.80;99.90;;;;;;5140298;27;20054;-77
2022/01/13 06:20:16;;;;;;;299.25;34.60;;;5.90;99.90;;;;;;5158348;27;20477;-77
2022/01/13 06:22:44;;;;;;;288.33;34.42;;;5.80;99.90;;;;;;5140515;27;20043;-76
2022/01/13 06:25:11;;;;;;;235.90;31.13;;;5.80;99.90;;;;;;5140322;27;20474;-77
2022/01/13 06:27:38;;;;;;;321.20;34.80;;;5.80;99.90;;;;;;5157722;27;20054;-76
2022/01/13 06:30:05;;;;;;;231.98;31.02;;;5.90;99.90;;;;;;5140145;27;20121;-77
2022/01/13 06:32:31;;;;;;;306.08;34.25;;;5.90;99.90;;;;;;5139893;27;20452;-76
2022/01/13 06:34:57;;;;;;;350.63;36.00;;;5.90;99.90;;;;;;5157815;27;20126;-76
2022/01/13 06:37:22;;;;;;;337.92;36.60;;;5.80;99.90;;;;;;5140011;27;20131;-76
2022/01/13 06:39:48;;;;;;;286.58;31.55;;;5.90;99.90;;;;;;5140019;27;20133;-76
2022/01/13 06:42:14;;;;;;;284.00;33.05;;;5.90;99.90;;;;;;5157457;27;20039;-76
2022/01/13 06:44:40;;;;;;;253.77;30.92;;;5.80;99.90;;;;;;5139868;27;20049;-77
2022/01/13 06:47:08;;;;;;;331.40;35.55;;;5.90;99.90;;;;;;5157921;27;20050;-77
2022/01/13 06:49:39;;;;;;;285.08;32.33;;;5.90;99.90;;;;;;5157551;27;20054;-77
2022/01/13 06:52:06;;;;;;;280.95;33.55;;;5.90;99.90;;;;;;5140065;27;20075;-77
2022/01/13 06:54:35;;;;;;;347.88;36.55;;;5.90;99.90;;;;;;5158299;27;20450;-77
2022/01/13 06:57:01;;;;;;;328.42;34.85;;;5.90;99.90;;;;;;5157197;27;20063;-77
2022/01/13 06:59:26;;;;;;;248.20;32.25;;;5.90;99.90;;;;;;5139815;27;20407;-77
2022/01/13 07:01:52;;;;;;;253.75;32.50;;;5.90;99.90;;;;;;5157973;27;20041;-77
2022/01/13 07:04:18;;;;;;;297.55;36.47;;;6.00;99.90;;;;;;5157381;27;20043;-77
2022/01/13 07:06:45;;;;;;;236.00;29.27;;;5.90;99.90;;;;;;5158143;27;20062;-77
2022/01/13 07:09:14;;;;;;;236.57;30.73;;;5.90;99.90;;;;;;5139639;27;20047;-77
2022/01/13 07:11:41;;;;;;;211.73;32.33;;;5.90;99.90;;;;;;5157197;27;20034;-78
2022/01/13 07:14:07;;;;;;;249.27;31.92;;;5.90;99.90;;;;;;5158054;27;20565;-81
2022/01/13 07:16:33;;;;;;;213.55;30.58;;;5.90;99.90;;;;;;5138757;27;20035;-77
2022/01/13 07:19:00;;;;;;;261.48;32.47;;;5.90;99.90;;;;;;5139392;27;20046;-78
2022/01/13 07:21:27;;;;;;;205.45;30.52;;;5.90;99.90;;;;;;5139042;27;20130;-78
2022/01/13 07:23:59;;;;;;;228.82;31.17;;;5.90;99.90;;;;;;5135884;27;20047;-77
2022/01/13 07:26:25;;;;;;;226.40;30.08;;;5.90;99.90;;;;;;5139107;27;20051;-78
2022/01/13 07:28:51;;;;;;;246.13;32.42;;;5.90;99.90;;;;;;5138387;27;20093;-78
2022/01/13 07:31:17;;;;;;;232.57;32.08;;;5.90;99.90;;;;;;5156190;27;20099;-77
2022/01/13 07:33:43;;;;;;;237.77;31.05;;;5.80;99.90;;;;;;5138088;27;20125;-78
2022/01/13 07:36:10;;;;;;;238.40;32.55;;;5.90;99.90;;;;;;5139202;27;20042;-78
2022/01/13 07:38:36;;;;;;;237.57;32.78;;;5.80;99.90;;;;;;5137830;27;20096;-78
2022/01/13 07:41:02;;;;;;;235.95;32.38;;;5.80;99.90;;;;;;5157230;27;20047;-78
2022/01/13 07:43:28;;;;;;;242.93;34.28;;;5.90;99.90;;;;;;5121901;27;20046;-78
2022/01/13 07:45:54;;;;;;;236.23;31.90;;;5.80;99.90;;;;;;5137905;27;20449;-78
2022/01/13 07:48:21;;;;;;;227.23;33.35;;;5.90;99.90;;;;;;5138019;27;20090;-77
2022/01/13 07:50:47;;;;;;;164.90;27.48;;;5.90;99.90;;;;;;5138049;27;20070;-77
2022/01/13 07:53:13;;;;;;;211.30;31.13;;;5.90;99.90;;;;;;5156424;27;20039;-78
2022/01/13 07:55:39;;;;;;;200.07;31.92;;;5.90;99.90;;;;;;5138763;27;20111;-78
2022/01/13 07:58:05;;;;;;;199.07;30.10;;;5.90;99.90;;;;;;5156804;27;20493;-78
2022/01/13 08:00:31;;;;;;;195.95;31.33;;;5.90;99.90;;;;;;5156155;27;20042;-78
2022/01/13 08:02:57;;;;;;;177.60;31.50;;;5.90;99.90;;;;;;5138068;27;20082;-77
2022/01/13 08:05:23;;;;;;;236.48;34.92;;;6.00;99.90;;;;;;5138398;27;20102;-78
2022/01/13 08:07:48;;;;;;;210.00;32.28;;;5.90;99.90;;;;;;5137601;27;20385;-78
2022/01/13 08:10:14;;;;;;;173.60;29.30;;;5.90;99.90;;;;;;5138002;27;20474;-78
2022/01/13 08:12:40;;;;;;;192.23;30.33;;;6.00;99.90;;;;;;5138276;27;20044;-78
2022/01/13 08:15:10;;;;;;;151.70;28.88;;;6.00;99.90;;;;;;5137533;27;20094;-78
2022/01/13 08:20:20;;;;;;;141.30;27.45;;;6.00;99.90;;;;;;5137505;27;20046;-78
2022/01/13 08:22:45;;;;;;;167.57;30.08;;;6.00;99.90;;;;;;5138195;27;20415;-78
2022/01/13 08:25:11;;;;;;;155.85;30.52;;;6.10;99.90;;;;;;5137754;27;20039;-78
2022/01/13 08:27:38;;;;;;;154.35;31.20;;;6.10;99.90;;;;;;5137086;27;20066;-77
2022/01/13 08:30:05;;;;;;;155.73;31.17;;;6.10;99.90;;;;;;5137623;27;20050;-78
2022/01/13 08:32:31;;;;;;;170.80;31.58;;;6.10;99.90;;;;;;5156328;27;20118;-78
2022/01/13 08:34:57;;;;;;;161.93;31.67;;;6.10;99.90;;;;;;5154729;27;20541;-77
2022/01/13 08:37:23;;;;;;;167.30;33.40;;;6.10;99.90;;;;;;5156241;27;20117;-78
2022/01/13 08:39:49;;;;;;;180.45;32.63;;;6.10;99.90;;;;;;5120766;27;20500;-77
2022/01/13 08:42:15;;;;;;;186.05;33.92;;;6.10;99.90;;;;;;5119246;27;20031;-78
2022/01/13 08:44:42;;;;;;;176.80;32.80;;;6.10;99.90;;;;;;5137539;27;20054;-77
2022/01/13 08:47:09;;;;;;;204.75;34.05;;;6.10;99.90;;;;;;5155667;27;20421;-78
2022/01/13 08:49:36;;;;;;;134.23;29.13;;;6.10;99.90;;;;;;5155210;27;20042;-77
2022/01/13 08:52:03;;;;;;;172.88;31.27;;;6.20;99.90;;;;;;5155894;27;20117;-78
2022/01/13 08:54:28;;;;;;;159.00;30.25;;;6.10;99.90;;;;;;5120250;27;20050;-78
2022/01/13 08:56:57;;;;;;;205.88;35.72;;;6.10;99.90;;;;;;5154862;27;20066;-78
2022/01/13 08:59:22;;;;;;;155.80;31.83;;;6.20;99.90;;;;;;5155770;27;20133;-78
2022/01/13 09:01:48;;;;;;;162.75;33.25;;;6.20;99.90;;;;;;5137182;27;20081;-78
2022/01/13 09:04:14;;;;;;;149.95;33.30;;;6.20;99.90;;;;;;5136381;27;20401;-78
2022/01/13 09:06:40;;;;;;;156.70;34.15;;;6.20;99.90;;;;;;5137052;27;20038;-78
2022/01/13 09:09:06;;;;;;;184.52;34.40;;;6.20;99.90;;;;;;5136309;27;20042;-78
2022/01/13 09:11:32;;;;;;;169.18;33.60;;;6.20;99.90;;;;;;5155607;27;20050;-78
2022/01/13 09:13:58;;;;;;;170.15;32.92;;;6.20;99.90;;;;;;5136703;27;20046;-78
2022/01/13 09:16:27;;;;;;;102.75;25.20;;;6.20;99.90;;;;;;5154629;27;20161;-77
2022/01/13 09:21:23;;;;;;;113.25;27.92;;;6.30;99.90;;;;;;5155700;27;20134;-78
2022/01/13 09:23:49;;;;;;;123.60;28.48;;;6.30;99.90;;;;;;5154571;27;20110;-78
2022/01/13 09:26:15;;;;;;;164.48;33.15;;;6.30;99.90;;;;;;5155329;27;20057;-78
2022/01/13 09:28:42;;;;;;;129.68;31.70;;;6.30;99.90;;;;;;5119473;27;20039;-77
2022/01/13 09:31:08;;;;;;;148.57;30.98;;;6.30;99.90;;;;;;5136248;27;20413;-78
2022/01/13 09:33:34;;;;;;;163.05;33.75;;;6.30;99.90;;;;;;5136586;27;20071;-77
2022/01/13 09:36:01;;;;;;;156.80;32.92;;;6.30;99.90;;;;;;5136774;27;20042;-77
2022/01/13 09:38:27;;;;;;;137.20;32.72;;;6.30;99.90;;;;;;5118592;27;20100;-77
2022/01/13 09:40:53;;;;;;;174.18;37.30;;;6.40;99.90;;;;;;5136425;27;20506;-78
2022/01/13 09:43:25;;;;;;;113.43;29.92;;;6.40;99.90;;;;;;5136157;27;20367;-78
2022/01/13 09:45:52;;;;;;;150.70;33.25;;;6.40;99.90;;;;;;5135501;27;20059;-77
2022/01/13 09:48:18;;;;;;;125.07;30.25;;;6.40;99.90;;;;;;5136517;27;20054;-77
2022/01/13 09:50:48;;;;;;;143.10;34.13;;;6.40;99.90;;;;;;5136143;27;20535;-78
2022/01/13 09:53:17;;;;;;;155.70;35.70;;;6.40;99.90;;;;;;5117853;27;20066;-77
2022/01/13 09:55:45;;;;;;;149.85;33.58;;;6.40;99.90;;;;;;5135628;27;20039;-77
2022/01/13 09:58:11;;;;;;;126.72;31.65;;;6.40;99.90;;;;;;5136496;27;20389;-78
2022/01/13 10:00:42;;;;;;;171.45;36.50;;;6.50;99.90;;;;;;5135597;27;20499;-78
2022/01/13 10:03:17;;;;;;;136.88;34.88;;;6.40;99.90;;;;;;5154329;27;20046;-78
2022/01/13 10:05:47;;;;;;;;;;;6.40;99.90;;;;;;5119040;27;20038;-77
2022/01/13 10:08:12;;;;;;;167.65;37.97;;;6.40;99.90;;;;;;5136268;27;20408;-78
2022/01/13 10:10:38;;;;;;;153.57;37.33;;;6.40;99.90;;;;;;5136212;27;20047;-77
2022/01/13 10:13:13;;;;;;;157.18;36.22;;;6.40;99.90;;;;;;5153862;27;20062;-78
2022/01/13 10:18:47;;;;;;;121.20;32.72;;;6.50;99.90;;;;;;5136157;27;20092;-77
2022/01/13 10:21:18;;;;;;;154.27;38.53;;;6.50;99.90;;;;;;5135333;27;20567;-77
2022/01/13 10:24:03;;;;;;;150.65;38.40;;;6.50;99.90;;;;;;5136261;27;20035;-77
2022/01/13 10:26:30;;;;;;;177.82;41.50;;;6.50;99.90;;;;;;5135383;27;20047;-77
2022/01/13 10:28:57;;;;;;;182.63;40.53;;;6.50;99.90;;;;;;5135899;27;20204;-77
2022/01/13 10:31:45;;;;;;;150.25;39.92;;;6.60;99.90;;;;;;5154257;27;20039;-77
2022/01/13 10:34:26;;;;;;;171.02;39.63;;;6.60;99.90;;;;;;5132936;28;20042;-78
2022/01/13 10:37:13;;;;;;;131.88;35.80;;;6.60;99.90;;;;;;5133872;28;20078;-77
2022/01/13 10:40:01;;;;;;;131.93;36.03;;;6.60;99.90;;;;;;5134119;28;20432;-77
2022/01/13 10:45:12;;;;;;;123.57;34.90;;;6.70;99.90;;;;;;5134018;28;20078;-77
2022/01/13 10:47:40;;;;;;;127.07;35.20;;;6.70;99.90;;;;;;5123830;27;20416;-77
2022/01/13 10:50:13;;;;;;;98.85;30.70;;;6.70;99.90;;;;;;5135846;27;20138;-77
2022/01/13 10:52:39;;;;;;;120.30;33.55;;;6.70;99.90;;;;;;5154424;27;20047;-77
2022/01/13 10:55:14;;;;;;;118.95;33.85;;;6.70;99.90;;;;;;5135741;27;20126;-78
2022/01/13 10:57:43;;;;;;;102.13;31.88;;;6.70;99.90;;;;;;5154269;27;20116;-77
2022/01/13 11:00:18;;;;;;;110.38;33.17;;;6.80;99.90;;;;;;5157603;27;20421;-77
2022/01/13 11:02:44;;;;;;;91.25;30.08;;;6.80;99.90;;;;;;5138579;27;20047;-77
2022/01/13 11:05:11;;;;;;;89.63;30.27;;;6.80;99.90;;;;;;5139665;27;20062;-77
2022/01/13 11:07:39;;;;;;;87.78;30.00;;;6.80;99.90;;;;;;5139445;27;20497;-77
2022/01/13 11:10:07;;;;;;;96.80;30.25;;;6.80;99.90;;;;;;5157069;27;20505;-77
2022/01/13 11:12:37;;;;;;;113.45;30.88;;;6.80;99.90;;;;;;5139581;27;20074;-77
2022/01/13 11:15:07;;;;;;;107.85;33.72;;;6.80;99.90;;;;;;5139228;27;20046;-77
2022/01/13 11:17:38;;;;;;;94.55;32.13;;;6.80;99.90;;;;;;5138662;27;20043;-77
2022/01/13 11:20:09;;;;;;;121.00;34.63;;;6.80;99.90;;;;;;5139580;27;20051;-77
2022/01/13 11:22:37;;;;;;;106.20;31.83;;;6.80;99.90;;;;;;5157829;27;20569;-77
2022/01/13 11:25:05;;;;;;;92.30;27.23;;;6.80;99.90;;;;;;5138441;27;20055;-76
2022/01/13 11:27:31;;;;;;;102.90;30.90;;;6.80;99.90;;;;;;5157797;27;20047;-77
2022/01/13 11:29:57;;;;;;;93.72;30.70;;;6.80;99.90;;;;;;5149686;27;20524;-77
2022/01/13 11:32:23;;;;;;;118.28;31.05;;;6.80;99.90;;;;;;5157393;27;20090;-77
2022/01/13 11:34:50;;;;;;;77.97;28.75;;;7.00;99.90;;;;;;5138963;27;20086;-77
2022/01/13 11:37:17;;;;;;;89.97;31.08;;;6.90;99.90;;;;;;5156706;27;20043;-76
2022/01/13 11:39:44;;;;;;;78.88;27.40;;;6.90;99.90;;;;;;5157215;27;20051;-77
2022/01/13 11:42:12;;;;;;;93.53;27.25;;;6.90;99.90;;;;;;5157563;27;20397;-77
2022/01/13 11:44:39;;;;;;;71.18;25.85;;;6.90;99.90;;;;;;5138382;27;20117;-77
2022/01/13 11:47:25;;;;;;;88.30;28.08;;;6.90;99.90;;;;;;5138491;27;20084;-77
2022/01/13 11:49:58;;;;;;;79.63;30.10;;;6.90;99.90;;;;;;5138761;27;20058;-77
2022/01/13 11:52:43;;;;;;;77.65;30.75;;;6.90;99.90;;;;;;5155252;27;20401;-76
2022/01/13 11:55:38;;;;;;;96.83;32.00;;;6.90;99.90;;;;;;5131382;27;20500;-77
2022/01/13 11:58:16;;;;;;;92.80;30.65;;;6.90;99.90;;;;;;5147328;27;20061;-77
2022/01/13 12:00:44;;;;;;;76.22;28.60;;;6.90;99.90;;;;;;5138452;27;20043;-76
2022/01/13 12:03:32;;;;;;;89.43;30.40;;;6.90;99.90;;;;;;5137924;27;20135;-77
2022/01/13 12:06:00;;;;;;;75.63;28.45;;;7.00;99.90;;;;;;5137463;27;20039;-76
2022/01/13 12:08:45;;;;;;;80.65;30.20;;;7.00;99.90;;;;;;5156944;27;20039;-77
2022/01/13 12:11:46;;;;;;;66.57;29.45;;;7.00;99.90;;;;;;5157045;27;20043;-77
2022/01/13 12:14:29;;;;;;;68.70;31.15;;;7.10;99.90;;;;;;5155876;27;20046;-77
2022/01/13 12:17:08;;;;;;;65.00;28.35;;;7.10;99.90;;;;;;5138171;27;20046;-77
2022/01/13 12:19:48;;;;;;;71.93;26.85;;;7.20;99.90;;;;;;5137062;27;20105;-77
2022/01/13 12:22:22;;;;;;;67.57;28.27;;;7.10;99.90;;;;;;5138376;27;20200;-77
2022/01/13 12:24:49;;;;;;;57.45;26.63;;;7.10;99.90;;;;;;5156518;27;20058;-77
2022/01/13 12:27:22;;;;;;;62.95;26.23;;;7.20;99.90;;;;;;5137067;27;20126;-77
2022/01/13 12:30:09;;;;;;;60.63;26.75;;;7.20;99.90;;;;;;5137731;27;20073;-77
2022/01/13 12:33:01;;;;;;;64.68;28.25;;;7.20;99.90;;;;;;5137510;27;20047;-77
2022/01/13 12:35:43;;;;;;;52.65;26.95;;;7.30;99.90;;;;;;5137945;27;20057;-77
2022/01/13 12:38:08;;;;;;;52.20;25.30;;;7.30;99.90;;;;;;5120631;27;20089;-77
2022/01/13 12:41:01;;;;;;;54.85;25.88;;;7.30;99.90;;;;;;5155524;27;20070;-77
2022/01/13 12:46:16;;;;;;;51.05;23.60;;;7.40;99.90;;;;;;5137447;27;20054;-77
2022/01/13 12:48:50;;;;;;;43.35;23.58;;;7.50;99.90;;;;;;5155127;27;20423;-77
2022/01/13 12:51:22;;;;;;;51.60;23.90;;;7.50;99.90;;;;;;5135158;27;20525;-77
2022/01/13 12:53:49;;;;;;;47.03;24.38;;;7.60;99.90;;;;;;5135201;27;20073;-77
2022/01/13 12:56:16;;;;;;;48.92;23.98;;;7.60;99.90;;;;;;5116185;27;20039;-77
2022/01/13 12:58:45;;;;;;;53.28;23.73;;;7.60;99.90;;;;;;5135174;27;20074;-77
2022/01/13 13:01:20;;;;;;;51.47;23.05;;;7.70;99.90;;;;;;5134440;27;20367;-77
2022/01/13 13:04:12;;;;;;;57.33;24.05;;;7.70;99.90;;;;;;5135310;27;20081;-77
2022/01/13 13:06:43;;;;;;;53.70;23.80;;;7.70;99.90;;;;;;5137101;27;20496;-77
2022/01/13 13:09:18;;;;;;;44.53;22.67;;;7.80;99.90;;;;;;5154715;27;20045;-78
2022/01/13 13:11:49;;;;;;;44.70;22.92;;;7.80;99.90;;;;;;5155769;27;20046;-77
2022/01/13 13:14:22;;;;;;;45.58;22.13;;;7.80;99.90;;;;;;5137300;27;20470;-77
2022/01/13 13:16:50;;;;;;;42.03;19.08;;;7.80;99.90;;;;;;5136126;27;20155;-78
2022/01/13 13:19:17;;;;;;;44.05;22.08;;;7.90;99.90;;;;;;5136699;27;20039;-77
2022/01/13 13:21:51;;;;;;;45.40;20.63;;;7.90;99.90;;;;;;5136455;27;20039;-78
2022/01/13 13:24:18;;;;;;;33.45;16.67;;;7.90;99.90;;;;;;5154573;27;20050;-77